Time;durP1;ratioP1;P1;durP2;ratioP2;P2;SDS_P1;SDS_P2;PMS_P1;PMS_P2;Temp;Humidity;BMP_temperature;BMP_pressure;BME280_temperature;BME280_humidity;BME280_pressure;Samples;Min_cycle;Max_cycle;Signal;HPM_P1;HPM_P2
2023/07/31 00:04:37;;;;;;;6.22;3.52;;;;;;;17.86;100.00;99912.54;1458870;89;21537;-83
2023/07/31 00:07:06;;;;;;;8.43;3.37;;;;;;;17.79;100.00;99903.19;1456960;88;21397;-84
2023/07/31 00:09:35;;;;;;;7.00;3.20;;;;;;;17.74;100.00;99899.75;1456004;88;21375;-83
2023/07/31 00:12:01;;;;;;;5.10;3.20;;;;;;;17.68;100.00;99901.10;1456639;88;21361;-83
2023/07/31 00:14:27;;;;;;;10.23;3.70;;;;;;;17.62;100.00;99900.59;1472176;88;23049;-83
2023/07/31 00:16:54;;;;;;;5.43;4.00;;;;;;;17.56;100.00;99896.89;1482252;88;22324;-83
2023/07/31 00:19:20;;;;;;;8.30;3.17;;;;;;;17.55;100.00;99897.89;1479919;88;22477;-83
2023/07/31 00:21:47;;;;;;;6.07;3.37;;;;;;;17.53;100.00;99903.47;1480066;88;21500;-83
2023/07/31 00:24:13;;;;;;;8.67;3.20;;;;;;;17.54;100.00;99907.78;1479093;88;21404;-83
2023/07/31 00:26:39;;;;;;;5.30;3.53;;;;;;;17.54;100.00;99915.80;1481847;88;22359;-83
2023/07/31 00:29:05;;;;;;;4.37;3.30;;;;;;;17.52;100.00;99909.86;1476555;88;21486;-83
2023/07/31 00:31:32;;;;;;;11.90;3.53;;;;;;;17.46;100.00;99914.67;1478642;88;21545;-83
2023/07/31 00:33:58;;;;;;;7.57;3.83;;;;;;;17.41;100.00;99915.00;1479443;88;21397;-83
2023/07/31 00:36:24;;;;;;;3.93;3.00;;;;;;;17.38;100.00;99916.23;1485875;88;21382;-82
2023/07/31 00:38:51;;;;;;;5.33;3.50;;;;;;;17.36;100.00;99915.60;1479358;88;21419;-82
2023/07/31 00:41:17;;;;;;;5.20;3.60;;;;;;;17.34;100.00;99920.32;1477146;88;22038;-82
2023/07/31 00:43:43;;;;;;;6.87;4.30;;;;;;;17.32;100.00;99918.36;1482169;88;21704;-82
2023/07/31 00:46:10;;;;;;;4.83;3.40;;;;;;;17.32;100.00;99922.37;1481149;88;21383;-82
2023/07/31 00:48:37;;;;;;;5.27;2.83;;;;;;;17.33;100.00;99918.17;1476161;88;21470;-83
2023/07/31 00:51:03;;;;;;;3.97;3.23;;;;;;;17.30;100.00;99918.58;1482570;88;21301;-82
2023/07/31 00:53:30;;;;;;;4.30;3.23;;;;;;;17.30;100.00;99919.09;1480435;88;21441;-82
2023/07/31 00:55:57;;;;;;;9.70;3.87;;;;;;;17.26;100.00;99915.16;1482982;88;21375;-82
2023/07/31 00:58:23;;;;;;;7.67;2.87;;;;;;;17.22;100.00;99910.74;1478392;88;21345;-82
2023/07/31 01:00:50;;;;;;;3.43;2.73;;;;;;;17.21;100.00;99923.81;1476303;88;21389;-78
2023/07/31 01:03:17;;;;;;;4.70;3.23;;;;;;;17.21;100.00;99909.63;1480443;88;21441;-80
2023/07/31 01:05:55;;;;;;;5.00;3.20;;;;;;;17.23;100.00;99907.03;1483549;88;21485;-79
2023/07/31 01:08:32;;;;;;;9.13;3.47;;;;;;;17.28;100.00;99910.44;1476727;88;21463;-80
2023/07/31 01:11:24;;;;;;;4.80;3.40;;;;;;;17.24;100.00;99903.34;1479259;88;21834;-80
2023/07/31 01:13:50;;;;;;;3.90;3.50;;;;;;;17.23;100.00;99904.88;1481307;88;21633;-79
2023/07/31 01:16:16;;;;;;;5.57;3.70;;;;;;;17.23;100.00;99907.55;1477037;88;21538;-79
2023/07/31 01:18:42;;;;;;;4.97;3.73;;;;;;;17.22;100.00;99905.39;1476335;88;22476;-79
2023/07/31 01:21:20;;;;;;;3.43;3.00;;;;;;;17.22;100.00;99905.91;1480373;88;21449;-79
2023/07/31 01:24:09;;;;;;;4.20;3.63;;;;;;;17.21;100.00;99901.60;1457460;88;22566;-78
2023/07/31 01:26:39;;;;;;;7.53;4.03;;;;;;;17.15;100.00;99900.56;1480665;88;21584;-78
2023/07/31 01:29:17;;;;;;;4.43;4.03;;;;;;;17.10;100.00;99897.67;1474396;88;21346;-79
2023/07/31 01:31:47;;;;;;;6.93;4.10;;;;;;;17.06;100.00;99891.06;1485568;88;21485;-78
2023/07/31 01:34:16;;;;;;;5.97;3.80;;;;;;;17.06;100.00;99893.25;1471655;88;22380;-79
2023/07/31 01:36:42;;;;;;;9.30;3.67;;;;;;;17.08;100.00;99895.19;1467578;88;22430;-79
2023/07/31 01:39:08;;;;;;;7.60;4.10;;;;;;;17.09;100.00;99890.66;1483443;88;21667;-78
2023/07/31 01:41:34;;;;;;;4.97;2.97;;;;;;;17.10;100.00;99889.13;1472705;88;21449;-78
2023/07/31 01:44:01;;;;;;;9.67;4.83;;;;;;;17.09;100.00;99886.16;1483649;88;22299;-78
2023/07/31 01:46:29;;;;;;;4.93;3.60;;;;;;;17.10;100.00;99878.95;1461923;88;21440;-78
2023/07/31 01:48:55;;;;;;;7.40;4.13;;;;;;;17.13;100.00;99875.88;1482618;88;21404;-77
2023/07/31 01:51:21;;;;;;;5.40;3.73;;;;;;;17.17;100.00;99869.59;1478480;88;22367;-77
2023/07/31 01:53:47;;;;;;;5.37;3.33;;;;;;;17.20;100.00;99871.86;1484298;88;22009;-78
2023/07/31 01:56:14;;;;;;;5.83;3.90;;;;;;;17.20;100.00;99866.52;1479225;88;21426;-78
2023/07/31 01:58:40;;;;;;;8.80;4.57;;;;;;;17.23;100.00;99866.09;1483747;88;21389;-77
2023/07/31 02:01:06;;;;;;;5.47;3.67;;;;;;;17.24;100.00;99865.91;1479185;88;21426;-77
2023/07/31 02:03:33;;;;;;;5.50;3.97;;;;;;;17.27;100.00;99860.67;1477219;88;21618;-77
2023/07/31 02:05:59;;;;;;;7.13;3.37;;;;;;;17.30;100.00;99864.27;1475823;88;21382;-78
2023/07/31 02:08:25;;;;;;;4.83;3.57;;;;;;;17.29;100.00;99867.95;1473897;88;21397;-77
2023/07/31 02:10:52;;;;;;;5.00;3.50;;;;;;;17.26;100.00;99869.70;1477973;88;21456;-78
2023/07/31 02:13:18;;;;;;;4.67;3.90;;;;;;;17.21;100.00;99870.85;1476567;88;21559;-78
2023/07/31 02:15:45;;;;;;;7.30;3.97;;;;;;;17.17;100.00;99878.95;1475458;88;21426;-78
2023/07/31 02:18:11;;;;;;;9.23;3.63;;;;;;;17.14;100.00;99883.67;1454022;88;21471;-77
2023/07/31 02:20:37;;;;;;;6.73;3.83;;;;;;;17.11;100.00;99894.78;1479139;88;21812;-77
2023/07/31 02:23:04;;;;;;;5.57;3.97;;;;;;;17.13;100.00;99897.27;1473260;88;22286;-78
2023/07/31 02:25:30;;;;;;;6.33;3.57;;;;;;;17.12;100.00;99899.12;1479138;88;21367;-78
2023/07/31 02:27:56;;;;;;;4.00;3.13;;;;;;;17.11;100.00;99902.80;1480805;88;21367;-78
2023/07/31 02:30:22;;;;;;;4.37;3.10;;;;;;;17.12;100.00;99907.14;1473819;88;21559;-78
2023/07/31 02:32:49;;;;;;;4.93;3.53;;;;;;;17.12;100.00;99909.81;1477370;88;21434;-78
2023/07/31 02:35:15;;;;;;;5.50;3.53;;;;;;;17.16;100.00;99910.22;1472290;88;22291;-78
2023/07/31 02:37:42;;;;;;;9.17;4.03;;;;;;;17.20;100.00;99915.98;1479899;88;22487;-78
2023/07/31 02:40:10;;;;;;;9.17;4.20;;;;;;;17.24;100.00;99912.70;1473916;88;21434;-78
2023/07/31 02:42:38;;;;;;;5.67;2.97;;;;;;;17.31;100.00;99911.38;1484319;88;21426;-78
2023/07/31 02:45:06;;;;;;;6.00;3.73;;;;;;;17.33;100.00;99903.98;1478474;88;21463;-78
2023/07/31 02:47:32;;;;;;;7.20;4.10;;;;;;;17.33;100.00;99898.62;1481636;88;21338;-78
2023/07/31 02:49:59;;;;;;;5.53;3.93;;;;;;;17.33;100.00;99904.80;1474478;88;21383;-78
2023/07/31 02:52:26;;;;;;;8.05;3.67;;;;;;;17.32;100.00;99907.66;1451758;88;22321;-78
2023/07/31 02:54:52;;;;;;;5.37;3.67;;;;;;;17.34;100.00;99909.63;1486862;88;21508;-77
2023/07/31 02:57:18;;;;;;;7.47;3.73;;;;;;;17.32;100.00;99910.33;1477785;88;21331;-78
2023/07/31 02:59:45;;;;;;;5.23;3.47;;;;;;;17.29;100.00;99907.58;1472444;88;21567;-78
2023/07/31 03:02:12;;;;;;;7.10;3.90;;;;;;;17.28;100.00;99911.27;1476099;88;21382;-78
2023/07/31 03:04:39;;;;;;;5.23;3.73;;;;;;;17.23;100.00;99911.05;1479477;88;21390;-78
2023/07/31 03:07:06;;;;;;;5.47;4.10;;;;;;;17.20;100.00;99906.10;1474361;88;22336;-78
2023/07/31 03:09:32;;;;;;;6.37;3.40;;;;;;;17.18;100.00;99898.82;1478274;88;21345;-78
2023/07/31 03:11:58;;;;;;;6.90;3.73;;;;;;;17.18;100.00;99910.03;1476448;88;22297;-78
2023/07/31 03:14:26;;;;;;;5.17;4.17;;;;;;;17.12;100.00;99908.48;1478459;88;21522;-78
2023/07/31 03:16:53;;;;;;;6.33;3.83;;;;;;;17.07;100.00;99915.45;1475163;88;21492;-78
2023/07/31 03:19:19;;;;;;;5.63;3.70;;;;;;;17.01;100.00;99914.41;1453226;88;21575;-78
2023/07/31 03:21:46;;;;;;;5.43;4.20;;;;;;;16.97;100.00;99908.32;1477722;88;21471;-78
2023/07/31 03:24:12;;;;;;;7.77;3.40;;;;;;;16.93;100.00;99915.93;1478327;88;21404;-78
2023/07/31 03:26:41;;;;;;;6.77;4.23;;;;;;;16.91;100.00;99920.64;1477030;88;21485;-79
2023/07/31 03:29:08;;;;;;;6.70;4.47;;;;;;;16.90;100.00;99913.66;1477598;88;21537;-79
2023/07/31 03:31:35;;;;;;;7.23;3.93;;;;;;;16.90;100.00;99920.34;1470295;88;21545;-78
2023/07/31 03:34:01;;;;;;;5.43;3.93;;;;;;;16.90;100.00;99920.34;1471345;88;21382;-78
2023/07/31 03:36:27;;;;;;;7.17;3.77;;;;;;;16.84;100.00;99923.30;1474035;88;21617;-78
2023/07/31 03:38:53;;;;;;;5.03;3.87;;;;;;;16.79;100.00;99921.73;1478265;88;22491;-78
2023/07/31 03:41:20;;;;;;;5.13;3.47;;;;;;;16.75;100.00;99926.34;1473287;88;21353;-78
2023/07/31 03:43:55;;;;;;;7.27;4.30;;;;;;;16.75;100.00;99930.34;1476695;88;21611;-79
2023/07/31 03:46:18;;;;;;;5.83;3.67;;;;;;;16.75;100.00;99935.17;1458346;88;21456;-78
2023/07/31 03:48:44;;;;;;;6.23;3.87;;;;;;;16.77;100.00;99934.47;1477729;88;21504;-78
2023/07/31 03:51:11;;;;;;;6.93;3.63;;;;;;;16.79;100.00;99935.09;1474337;88;21494;-79
2023/07/31 03:53:37;;;;;;;4.93;3.83;;;;;;;16.83;100.00;99935.52;1478604;88;21581;-77
2023/07/31 03:56:03;;;;;;;6.60;3.80;;;;;;;16.86;100.00;99937.78;1476222;88;21397;-78
2023/07/31 03:58:29;;;;;;;11.87;4.70;;;;;;;16.90;100.00;99940.39;1477438;88;22439;-77
2023/07/31 04:00:55;;;;;;;11.40;4.83;;;;;;;16.97;100.00;99933.20;1475018;88;21397;-78
2023/07/31 04:03:22;;;;;;;5.70;4.30;;;;;;;17.03;100.00;99935.09;1479934;88;21433;-78
2023/07/31 04:05:48;;;;;;;8.37;4.30;;;;;;;17.06;100.00;99934.69;1477631;88;21463;-79
2023/07/31 04:08:14;;;;;;;7.93;4.30;;;;;;;17.07;100.00;99932.31;1479604;88;22755;-79
2023/07/31 04:10:42;;;;;;;7.93;4.80;;;;;;;17.10;100.00;99935.09;1477950;88;21477;-78
2023/07/31 04:13:08;;;;;;;7.10;3.93;;;;;;;17.13;100.00;99938.19;1477758;88;22299;-79
2023/07/31 04:15:35;;;;;;;5.07;3.73;;;;;;;17.18;100.00;99934.09;1480122;88;21492;-79
2023/07/31 04:18:01;;;;;;;5.00;4.00;;;;;;;17.20;100.00;99937.38;1481169;88;21382;-79
2023/07/31 04:20:27;;;;;;;5.40;3.40;;;;;;;17.20;100.00;99946.73;1460533;88;21635;-78
2023/07/31 04:22:53;;;;;;;7.13;3.80;;;;;;;17.23;100.00;99945.81;1475961;88;22439;-78
2023/07/31 04:25:19;;;;;;;5.80;4.23;;;;;;;17.29;100.00;99940.16;1476102;88;21898;-78
2023/07/31 04:27:46;;;;;;;5.47;3.57;;;;;;;17.37;100.00;99949.34;1480533;88;21434;-78
2023/07/31 04:30:12;;;;;;;7.20;4.80;;;;;;;17.43;100.00;99951.19;1480574;88;21337;-79
2023/07/31 04:32:38;;;;;;;5.33;4.30;;;;;;;17.48;100.00;99952.75;1476200;88;21382;-79
2023/07/31 04:35:05;;;;;;;5.78;3.75;;;;;;;17.57;100.00;99955.53;1481169;88;22321;-78
2023/07/31 04:37:31;;;;;;;9.78;4.00;;;;;;;17.64;100.00;99949.38;1482414;88;21382;-80
2023/07/31 04:39:58;;;;;;;4.42;3.90;;;;;;;17.75;100.00;99951.41;1474781;88;21397;-80
2023/07/31 04:42:24;;;;;;;11.38;5.65;;;;;;;17.85;100.00;99949.20;1484154;88;21404;-80
2023/07/31 04:44:50;;;;;;;6.10;5.47;;;;;;;17.98;100.00;99945.67;1481525;88;22440;-78
2023/07/31 04:47:16;;;;;;;5.80;3.87;;;;;;;18.11;100.00;99943.51;1483937;88;21360;-79
2023/07/31 04:49:42;;;;;;;7.12;4.05;;;;;;;18.25;100.00;99949.15;1458350;88;21441;-78
2023/07/31 04:52:08;;;;;;;9.60;4.03;;;;;;;18.34;100.00;99947.89;1480326;88;21515;-79
2023/07/31 04:54:34;;;;;;;6.28;3.52;;;;;;;18.41;100.00;99946.03;1481726;88;21826;-78
2023/07/31 04:57:00;;;;;;;5.28;4.10;;;;;;;18.53;100.00;99941.33;1480626;88;21374;-79
2023/07/31 04:59:27;;;;;;;7.10;3.80;;;;;;;18.62;100.00;99949.47;1483221;88;21368;-80
2023/07/31 05:01:53;;;;;;;4.00;3.25;;;;;;;18.72;100.00;99949.30;1468169;88;21382;-80
2023/07/31 05:04:19;;;;;;;5.97;3.47;;;;;;;18.81;100.00;99953.93;1478437;88;21374;-79
2023/07/31 05:06:45;;;;;;;7.22;4.37;;;;;;;18.91;100.00;99960.20;1472652;88;21501;-79
2023/07/31 05:09:12;;;;;;;5.53;3.90;;;;;;;18.96;100.00;99958.20;1470576;88;21497;-79
2023/07/31 05:11:40;;;;;;;6.20;3.58;;;;;;;19.01;100.00;99957.86;1480953;88;22421;-80
2023/07/31 05:14:09;;;;;;;4.62;4.00;;;;;;;19.11;100.00;99958.76;1476763;88;22004;-80
2023/07/31 05:16:35;;;;;;;4.40;3.22;;;;;;;19.20;100.00;99962.83;1479245;88;21471;-79
2023/07/31 05:19:02;;;;;;;5.80;3.75;;;;;;;19.29;100.00;99965.55;1479910;88;21346;-80
2023/07/31 05:21:28;;;;;;;8.05;3.10;;;;;;;19.39;100.00;99962.38;1478560;88;21426;-78
2023/07/31 05:23:55;;;;;;;4.80;3.37;;;;;;;19.46;100.00;99965.05;1480724;88;22498;-78
2023/07/31 05:26:21;;;;;;;5.53;3.47;;;;;;;19.56;100.00;99969.39;1471643;88;22313;-80
2023/07/31 05:28:47;;;;;;;14.60;3.37;;;;;;;19.64;100.00;99971.00;1473775;88;21411;-79
2023/07/31 05:31:13;;;;;;;6.60;3.30;;;;;;;19.72;100.00;99976.14;1469446;88;21456;-80
2023/07/31 05:33:40;;;;;;;6.12;2.47;;;;;;;19.79;100.00;99977.74;1472618;88;21501;-78
2023/07/31 05:36:06;;;;;;;4.25;2.33;;;;;;;19.87;100.00;99976.63;1476829;88;21317;-79
2023/07/31 05:38:32;;;;;;;3.50;2.45;;;;;;;19.95;100.00;99979.56;1465944;88;21448;-78
2023/07/31 05:40:58;;;;;;;2.90;2.30;;;;;;;20.03;100.00;99983.32;1484882;88;22432;-78
2023/07/31 05:43:24;;;;;;;2.92;2.22;;;;;;;20.17;100.00;99981.31;1474648;88;21914;-78
2023/07/31 05:45:51;;;;;;;8.18;2.55;;;;;;;20.20;100.00;99973.66;1476682;88;21493;-78
2023/07/31 05:48:17;;;;;;;5.08;2.90;;;;;;;20.20;100.00;99973.66;1472770;88;22181;-79
2023/07/31 05:50:44;;;;;;;3.83;2.30;;;;;;;20.49;100.00;99980.17;1487144;88;21331;-79
2023/07/31 05:53:11;;;;;;;4.62;2.60;;;;;;;20.49;100.00;99980.17;1472660;88;21323;-78
2023/07/31 05:55:37;;;;;;;4.22;2.42;;;;;;;20.60;100.00;99983.17;1475368;88;21361;-78
2023/07/31 05:58:03;;;;;;;5.28;2.47;;;;;;;20.63;100.00;99983.57;1468559;88;21383;-77
2023/07/31 06:00:30;;;;;;;4.33;2.17;;;;;;;20.68;100.00;99987.73;1479999;88;22364;-78
2023/07/31 06:02:56;;;;;;;2.90;2.12;;;;;;;20.69;100.00;99992.08;1475170;88;21926;-78
2023/07/31 06:05:22;;;;;;;4.90;2.37;;;;;;;20.73;100.00;99994.61;1472741;88;21457;-77
2023/07/31 06:07:48;;;;;;;2.60;2.22;;;;;;;20.87;100.00;99991.77;1473719;88;21405;-79
2023/07/31 06:10:15;;;;;;;6.33;2.70;;;;;;;20.97;100.00;99992.04;1468910;88;21509;-78
2023/07/31 06:12:41;;;;;;;4.10;2.40;;;;;;;21.04;100.00;99986.59;1475390;88;22277;-78
2023/07/31 06:15:07;;;;;;;3.60;2.70;;;;;;;21.17;100.00;99989.91;1480573;88;21503;-78
2023/07/31 06:17:34;;;;;;;2.47;1.75;;;;;;;21.21;100.00;99986.80;1471580;88;21450;-77
2023/07/31 06:20:00;;;;;;;4.75;2.10;;;;;;;21.28;100.00;99991.02;1478245;88;22321;-78
2023/07/31 06:22:26;;;;;;;4.65;2.70;;;;;;;21.38;100.00;99986.47;1473700;88;21456;-78
2023/07/31 06:24:52;;;;;;;5.90;3.02;;;;;;;21.47;100.00;99993.16;1478029;88;21456;-79
2023/07/31 06:27:19;;;;;;;6.30;3.58;;;;;;;21.58;100.00;99991.03;1470194;88;21501;-78
2023/07/31 06:29:45;;;;;;;6.22;3.20;;;;;;;21.63;100.00;99989.80;1473594;88;21412;-78
2023/07/31 06:32:11;;;;;;;6.47;3.10;;;;;;;21.69;100.00;99985.89;1472669;88;22239;-80
2023/07/31 06:34:37;;;;;;;5.22;3.00;;;;;;;21.84;100.00;99988.98;1477233;88;21389;-80
2023/07/31 06:37:03;;;;;;;3.33;2.35;;;;;;;21.97;100.00;99990.09;1474535;88;21360;-79
2023/07/31 06:39:30;;;;;;;6.40;3.02;;;;;;;22.09;100.00;99989.56;1478682;88;21485;-80
2023/07/31 06:41:56;;;;;;;4.58;2.62;;;;;;;22.03;100.00;99991.84;1474751;88;21538;-80
2023/07/31 06:44:22;;;;;;;3.75;2.47;;;;;;;22.18;100.00;99991.94;1479643;88;22153;-80
2023/07/31 06:46:48;;;;;;;3.35;2.20;;;;;;;22.19;100.00;99990.91;1482024;88;21576;-80
2023/07/31 06:49:17;;;;;;;6.42;3.08;;;;;;;22.26;100.00;99988.89;1479354;88;21488;-81
2023/07/31 06:51:44;;;;;;;8.03;3.42;;;;;;;22.31;100.00;99991.72;1475111;88;21375;-79
2023/07/31 06:54:10;;;;;;;3.00;2.00;;;;;;;22.39;100.00;99990.02;1477992;88;21471;-78
2023/07/31 06:56:36;;;;;;;7.35;2.33;;;;;;;22.48;100.00;99997.22;1476523;88;21345;-79
2023/07/31 06:59:03;;;;;;;2.42;1.70;;;;;;;22.56;100.00;99994.16;1469427;88;21427;-79
2023/07/31 07:01:30;;;;;;;4.67;2.02;;;;;;;22.58;100.00;99997.95;1478081;88;22298;-78
2023/07/31 07:03:56;;;;;;;2.37;1.95;;;;;;;22.68;100.00;99993.60;1471436;88;21413;-80
2023/07/31 07:06:23;;;;;;;6.40;1.75;;;;;;;22.83;100.00;99994.45;1479102;88;21337;-79
2023/07/31 07:08:49;;;;;;;3.05;1.87;;;;;;;22.87;100.00;99992.92;1479600;88;21361;-79
2023/07/31 07:11:15;;;;;;;4.05;1.80;;;;;;;23.00;100.00;99999.13;1476129;88;21404;-79
2023/07/31 07:13:41;;;;;;;3.00;2.10;;;;;;;23.06;100.00;99995.47;1466046;88;21456;-79
2023/07/31 07:16:07;;;;;;;3.45;2.30;;;;;;;23.09;98.90;99985.54;1475882;88;21484;-80
2023/07/31 07:18:34;;;;;;;7.30;2.10;;;;;;;23.20;100.00;99984.67;1478078;88;21528;-80
2023/07/31 07:21:02;;;;;;;2.87;2.58;;;;;;;23.26;99.25;99987.75;1477015;88;21507;-86
2023/07/31 07:23:28;;;;;;;5.35;2.20;;;;;;;23.33;97.26;99986.24;1477509;88;21418;-85
2023/07/31 07:26:00;;;;;;;3.17;2.08;;;;;;;23.42;99.13;99984.28;1479549;88;22196;-85
2023/07/31 07:28:28;;;;;;;6.10;2.10;;;;;;;23.37;96.92;99981.48;1477073;88;21573;-86
2023/07/31 07:30:54;;;;;;;5.03;2.58;;;;;;;23.42;95.95;99975.36;1478726;88;21506;-87
2023/07/31 07:33:21;;;;;;;4.17;2.42;;;;;;;23.52;97.74;99986.86;1479703;88;21360;-86
2023/07/31 07:35:47;;;;;;;4.17;2.60;;;;;;;23.64;97.12;99984.37;1479931;88;22401;-85
2023/07/31 07:38:15;;;;;;;3.02;2.33;;;;;;;23.75;97.77;99984.05;1480927;88;21419;-83
2023/07/31 07:40:42;;;;;;;3.85;2.42;;;;;;;23.80;95.16;99982.78;1458494;88;21785;-85
2023/07/31 07:43:08;;;;;;;4.33;2.20;;;;;;;23.91;96.31;99984.28;1478463;88;21337;-86
2023/07/31 07:45:34;;;;;;;5.45;2.35;;;;;;;23.99;94.23;99982.52;1478522;88;21555;-88
2023/07/31 07:48:01;;;;;;;6.03;3.12;;;;;;;24.01;94.64;99977.70;1479405;88;21360;-86
2023/07/31 07:50:27;;;;;;;6.83;3.20;;;;;;;24.00;92.79;99981.48;1481444;88;21702;-85
2023/07/31 07:52:53;;;;;;;8.95;2.90;;;;;;;24.05;94.96;99977.48;1478999;88;21419;-85
2023/07/31 07:55:19;;;;;;;4.53;2.72;;;;;;;24.25;96.11;99981.83;1439429;88;21493;-84
2023/07/31 07:57:46;;;;;;;6.08;2.75;;;;;;;24.44;95.98;99975.64;1472559;88;21315;-85
2023/07/31 08:00:13;;;;;;;4.55;2.37;;;;;;;24.59;95.61;99969.61;1479738;88;21962;-86
2023/07/31 08:02:39;;;;;;;3.87;2.27;;;;;;;24.74;95.72;99964.92;1482074;88;21531;-86
2023/07/31 08:05:06;;;;;;;7.17;2.75;;;;;;;24.86;93.38;99960.73;1482167;88;21360;-88
2023/07/31 08:07:33;;;;;;;5.80;2.60;;;;;;;24.95;93.47;99955.17;1480373;88;21382;-86
2023/07/31 08:09:59;;;;;;;6.67;2.25;;;;;;;25.12;93.51;99950.48;1480625;88;21467;-86
2023/07/31 08:12:25;;;;;;;2.60;2.30;;;;;;;25.19;90.92;99952.47;1479446;88;21374;-85
2023/07/31 08:14:51;;;;;;;3.67;2.12;;;;;;;25.35;91.34;99955.34;1476370;88;22483;-86
2023/07/31 08:17:18;;;;;;;2.60;2.20;;;;;;;25.40;88.06;99955.37;1476141;88;21574;-86
2023/07/31 08:19:44;;;;;;;3.75;2.08;;;;;;;25.47;89.03;99960.05;1481316;88;21552;-85
2023/07/31 08:22:11;;;;;;;3.90;2.60;;;;;;;25.62;89.45;99962.07;1458478;88;21625;-84
2023/07/31 08:24:37;;;;;;;2.27;1.75;;;;;;;25.72;88.29;99959.45;1444135;88;21426;-84
2023/07/31 08:27:05;;;;;;;3.02;2.22;;;;;;;25.73;85.74;99962.98;1479881;88;21293;-85
2023/07/31 08:29:32;;;;;;;2.90;1.92;;;;;;;25.85;87.12;99963.64;1479305;88;21514;-85
2023/07/31 08:31:58;;;;;;;10.88;2.20;;;;;;;25.97;86.82;99962.91;1480751;88;22290;-85
2023/07/31 08:34:25;;;;;;;4.20;1.90;;;;;;;26.00;85.02;99974.58;1481100;88;21352;-84
2023/07/31 08:36:52;;;;;;;4.55;1.80;;;;;;;26.13;85.11;99967.91;1482738;88;21471;-85
2023/07/31 08:39:18;;;;;;;4.67;2.10;;;;;;;26.22;84.17;99965.52;1479823;88;22410;-86
2023/07/31 08:41:44;;;;;;;4.90;3.15;;;;;;;26.31;84.52;99969.36;1482788;88;21448;-86
2023/07/31 08:44:14;;;;;;;3.02;2.10;;;;;;;26.16;82.50;99967.92;1490430;88;22023;-87
2023/07/31 08:46:40;;;;;;;2.85;2.27;;;;;;;26.07;83.09;99972.48;1478808;88;21294;-86
2023/07/31 08:49:09;;;;;;;1.80;1.62;;;;;;;26.04;84.32;99973.00;1479213;88;22320;-84
2023/07/31 08:51:36;;;;;;;7.08;2.40;;;;;;;26.00;82.08;99970.52;1478370;88;22181;-86
2023/07/31 08:54:06;;;;;;;2.70;2.12;;;;;;;26.02;84.60;99971.08;1486708;88;21522;-86
2023/07/31 08:56:32;;;;;;;;;;;;;;;26.05;85.12;99977.87;1484481;88;21353;-84
2023/07/31 08:59:02;;;;;;;3.92;2.05;;;;;;;25.80;82.75;99974.41;1448429;89;20549;-84
2023/07/31 09:01:31;;;;;;;7.50;2.47;;;;;;;25.70;82.41;99966.20;1454289;89;22514;-84
2023/07/31 09:04:01;;;;;;;7.40;2.43;;;;;;;25.49;82.91;99963.33;1480229;88;21546;-83
2023/07/31 09:06:29;;;;;;;3.35;2.52;;;;;;;25.49;82.91;99963.33;1485961;88;22132;-79
2023/07/31 09:08:56;;;;;;;2.62;1.92;;;;;;;25.60;84.58;99970.45;1479607;88;21382;-85
2023/07/31 09:11:24;;;;;;;5.45;2.33;;;;;;;25.64;83.59;99972.94;1472013;88;21507;-86
2023/07/31 09:13:50;;;;;;;2.45;2.25;;;;;;;25.74;84.17;99974.09;1482597;88;21360;-88
2023/07/31 09:16:16;;;;;;;2.40;2.20;;;;;;;25.87;84.56;99969.63;1484393;88;21352;-88
2023/07/31 09:18:56;;;;;;;2.58;2.27;;;;;;;26.17;82.47;99973.62;1481104;88;21456;-85
2023/07/31 09:21:25;;;;;;;2.75;2.45;;;;;;;26.40;82.76;99973.75;1489019;88;21962;-86
2023/07/31 09:23:53;;;;;;;2.25;1.82;;;;;;;26.53;80.85;99971.41;1476093;88;21678;-86
2023/07/31 09:26:36;;;;;;;4.65;2.05;;;;;;;26.72;78.81;99965.51;1486182;88;21595;-83
2023/07/31 09:29:09;;;;;;;6.20;2.35;;;;;;;26.90;79.34;99963.69;1515166;88;22409;-80
2023/07/31 09:31:43;;;;;;;6.12;2.67;;;;;;;26.91;78.75;99961.79;1472044;88;21569;-85
2023/07/31 09:34:11;;;;;;;5.08;2.60;;;;;;;27.05;79.45;99960.20;1476642;88;21375;-81
2023/07/31 09:36:47;;;;;;;3.10;2.17;;;;;;;27.15;77.20;99962.11;1480278;88;21448;-83
2023/07/31 09:39:15;;;;;;;7.83;2.85;;;;;;;27.24;77.05;99952.38;1477740;88;21412;-83
2023/07/31 09:41:56;;;;;;;3.97;2.83;;;;;;;27.22;76.88;99947.77;1478589;88;21323;-82
2023/07/31 09:44:41;;;;;;;5.72;2.40;;;;;;;27.42;77.00;99946.44;1483480;88;21699;-83
2023/07/31 09:47:09;;;;;;;5.67;2.25;;;;;;;27.60;76.87;99946.43;1482037;88;21589;-83
2023/07/31 09:49:35;;;;;;;7.00;2.90;;;;;;;27.97;77.60;99938.55;1476711;88;21455;-82
2023/07/31 09:52:01;;;;;;;6.40;2.17;;;;;;;28.21;75.49;99944.20;1478983;88;22313;-82
2023/07/31 09:54:28;;;;;;;6.25;2.40;;;;;;;28.33;74.48;99943.89;1479581;88;21427;-82
2023/07/31 09:56:56;;;;;;;6.08;2.65;;;;;;;28.09;72.83;99946.41;1478140;88;21404;-84
2023/07/31 09:59:25;;;;;;;3.52;2.50;;;;;;;28.26;74.28;99941.47;1473770;88;22262;-86
2023/07/31 10:01:52;;;;;;;7.22;2.60;;;;;;;28.43;74.29;99944.45;1479684;88;22327;-81
2023/07/31 10:04:25;;;;;;;2.90;2.42;;;;;;;28.59;74.18;99939.19;1475137;88;21374;-80
2023/07/31 10:06:52;;;;;;;2.90;2.15;;;;;;;28.81;73.70;99936.10;1480357;88;21441;-82
2023/07/31 10:09:21;;;;;;;6.10;3.10;;;;;;;28.89;73.49;99934.70;1475680;88;22416;-82
2023/07/31 10:11:55;;;;;;;4.42;2.10;;;;;;;28.72;71.47;99944.59;1484361;88;21389;-82
2023/07/31 10:14:23;;;;;;;5.15;2.30;;;;;;;28.49;72.26;99946.86;1480460;88;21427;-84
2023/07/31 10:16:50;;;;;;;2.58;2.35;;;;;;;28.30;72.52;99945.80;1474403;88;22495;-83
2023/07/31 10:19:19;;;;;;;3.02;2.22;;;;;;;28.18;71.61;99947.47;1456788;89;22330;-79
2023/07/31 10:21:46;;;;;;;2.77;2.20;;;;;;;28.10;71.72;99951.56;1452549;88;21545;-83
2023/07/31 10:24:13;;;;;;;4.72;2.22;;;;;;;28.09;71.86;99946.41;1454251;88;21501;-83
2023/07/31 10:26:39;;;;;;;6.35;2.27;;;;;;;28.21;72.35;99952.36;1448106;89;22386;-82
2023/07/31 10:29:06;;;;;;;2.47;2.22;;;;;;;28.33;72.21;99943.89;1465433;88;21456;-82
2023/07/31 10:31:34;;;;;;;2.45;2.05;;;;;;;28.53;72.48;99948.48;1455466;88;22343;-82
2023/07/31 10:34:00;;;;;;;4.25;3.10;;;;;;;28.67;71.80;99941.89;1460337;89;21426;-81
2023/07/31 10:36:27;;;;;;;6.78;2.08;;;;;;;28.73;72.15;99945.66;1461986;89;22447;-82
2023/07/31 10:38:55;;;;;;;7.80;3.72;;;;;;;28.75;71.20;99935.86;1456325;89;21804;-82
2023/07/31 10:41:31;;;;;;;6.85;2.37;;;;;;;28.83;71.26;99931.72;1452360;89;21272;-82
2023/07/31 10:44:00;;;;;;;2.05;1.90;;;;;;;28.95;70.82;99934.39;1459451;88;22448;-81
2023/07/31 10:46:28;;;;;;;3.10;2.58;;;;;;;29.14;70.15;99935.92;1457429;88;21397;-81
2023/07/31 10:49:02;;;;;;;3.22;2.20;;;;;;;29.12;68.57;99927.23;1461379;89;21339;-81
2023/07/31 10:51:36;;;;;;;7.65;2.47;;;;;;;29.36;70.91;99930.05;1460227;89;21568;-81
2023/07/31 10:54:18;;;;;;;5.28;2.83;;;;;;;29.51;69.31;99930.47;1463518;88;21434;-81
2023/07/31 10:56:52;;;;;;;3.65;2.42;;;;;;;29.73;68.22;99931.97;1466019;89;21368;-80
2023/07/31 10:59:20;;;;;;;5.40;2.50;;;;;;;29.79;62.85;99926.72;1463828;89;22481;-81
2023/07/31 11:01:56;;;;;;;5.58;2.52;;;;;;;29.75;63.46;99926.49;1454319;89;21361;-81
2023/07/31 11:04:26;;;;;;;3.83;2.35;;;;;;;29.73;63.37;99926.52;1458024;89;21449;-81
2023/07/31 11:07:02;;;;;;;5.05;2.83;;;;;;;29.73;63.27;99921.06;1459586;88;21426;-81
2023/07/31 11:09:33;;;;;;;3.33;2.33;;;;;;;29.35;63.26;99918.89;1463591;89;22247;-81
2023/07/31 11:12:00;;;;;;;3.17;2.25;;;;;;;29.07;62.55;99920.45;1452878;88;21308;-80
2023/07/31 11:14:26;;;;;;;4.22;2.35;;;;;;;28.81;63.97;99920.31;1458318;89;22152;-81
2023/07/31 11:16:53;;;;;;;2.98;2.52;;;;;;;28.94;65.15;99916.95;1453811;88;21308;-81
2023/07/31 11:19:27;;;;;;;5.60;2.80;;;;;;;29.10;65.48;99921.25;1475345;88;21546;-81
2023/07/31 11:21:53;;;;;;;2.67;2.35;;;;;;;29.30;62.10;99913.47;1469595;88;21486;-81
2023/07/31 11:24:20;;;;;;;3.62;2.55;;;;;;;29.44;59.66;99915.01;1473927;88;21315;-81
2023/07/31 11:26:52;;;;;;;5.53;2.52;;;;;;;29.11;53.80;99914.69;1471532;88;22592;-81
2023/07/31 11:29:20;;;;;;;4.85;2.60;;;;;;;29.12;54.83;99920.98;1480737;88;21426;-81
2023/07/31 11:31:48;;;;;;;4.67;2.30;;;;;;;29.12;55.30;99914.97;1476786;88;21636;-81
2023/07/31 11:34:15;;;;;;;2.60;2.12;;;;;;;29.06;54.66;99914.75;1485213;88;22299;-81